createdAt,value
2018-10-11T00:02:38.141Z,96798.75
2018-10-11T00:07:33.024Z,96793.31
2018-10-11T00:12:27.936Z,96792.41
2018-10-11T00:17:22.753Z,96790.97
2018-10-11T00:22:17.593Z,96793.30
2018-10-11T00:27:12.714Z,96794.61
2018-10-11T00:32:07.626Z,96793.53
2018-10-11T00:37:02.459Z,96784.80
2018-10-11T00:41:57.260Z,96778.23
2018-10-11T00:46:52.101Z,96776.28
2018-10-11T00:51:46.906Z,96782.84
2018-10-11T00:56:41.893Z,96778.68
2018-10-11T01:01:36.708Z,96778.20
2018-10-11T01:06:31.565Z,96778.80
2018-10-11T01:11:26.462Z,96782.06
2018-10-11T01:16:21.263Z,96787.25
2018-10-11T01:21:16.073Z,96785.55
2018-10-11T01:26:11.438Z,96788.58
2018-10-11T01:31:11.218Z,96774.09
2018-10-11T01:36:06.170Z,96783.64
2018-10-11T01:41:01.045Z,96773.90
2018-10-11T01:45:55.911Z,96766.04
2018-10-11T01:50:50.753Z,96776.02
2018-10-11T01:55:45.567Z,96758.11
2018-10-11T02:00:40.662Z,96753.39
2018-10-11T02:05:35.468Z,96764.50
2018-10-11T02:10:30.302Z,96759.52
2018-10-11T02:15:25.638Z,96757.86
2018-10-11T02:20:20.887Z,96755.73
2018-10-11T02:25:15.789Z,96750.38
2018-10-11T02:30:11.377Z,96747.75
2018-10-11T02:35:06.380Z,96745.97
2018-10-11T02:40:02.148Z,96754.41
2018-10-11T02:44:57.089Z,96753.36
2018-10-11T02:49:52.925Z,96747.88
2018-10-11T02:54:47.824Z,96750.88
2018-10-11T02:59:42.873Z,96742.64
2018-10-11T03:04:38.267Z,96748.84
2018-10-11T03:09:33.261Z,96749.66
2018-10-11T03:14:28.430Z,96742.05
2018-10-11T03:19:23.377Z,96739.32
2018-10-11T03:24:18.351Z,96747.66
2018-10-11T03:29:13.239Z,96742.08
2018-10-11T03:34:08.066Z,96746.45
2018-10-11T03:39:03.031Z,96738.84
2018-10-11T03:43:57.932Z,96741.69
2018-10-11T03:48:52.865Z,96746.23
2018-10-11T03:53:47.779Z,96754.44
2018-10-11T03:58:42.803Z,96752.17
2018-10-11T04:03:37.748Z,96758.38
2018-10-11T04:08:32.866Z,96746.94
2018-10-11T04:13:27.796Z,96750.03
2018-10-11T04:18:22.731Z,96751.34
2018-10-11T04:23:22.685Z,96748.72
2018-10-11T04:28:17.649Z,96754.56
2018-10-11T04:33:13.006Z,96754.61
2018-10-11T04:38:08.013Z,96751.52
2018-10-11T04:43:03.038Z,96756.05
2018-10-11T04:47:57.881Z,96766.10
2018-10-11T04:52:52.800Z,96768.31
2018-10-11T04:57:48.476Z,96768.06
2018-10-11T05:02:43.386Z,96761.52
2018-10-11T05:07:38.289Z,96772.86
2018-10-11T05:12:33.323Z,96773.09
2018-10-11T05:17:28.409Z,96767.56
2018-10-11T05:22:23.413Z,96776.53
2018-10-11T05:27:19.386Z,96772.38
2018-10-11T05:32:14.729Z,96783.77
2018-10-11T05:37:09.687Z,96789.82
2018-10-11T05:42:04.869Z,96797.33
2018-10-11T05:46:59.937Z,96797.34
2018-10-11T05:51:55.621Z,96803.78
2018-10-11T05:56:51.147Z,96803.87
2018-10-11T06:01:46.151Z,96815.58
2018-10-11T06:06:41.245Z,96825.82
2018-10-11T06:11:36.341Z,96822.64
2018-10-11T06:16:31.315Z,96814.03
2018-10-11T06:21:27.451Z,96823.21
2018-10-11T06:26:22.499Z,96826.67
2018-10-11T06:31:17.572Z,96831.61
2018-10-11T06:36:12.728Z,96837.69
2018-10-11T06:41:07.764Z,96836.03
2018-10-11T06:46:02.785Z,96845.22
2018-10-11T06:50:57.787Z,96851.82
2018-10-11T06:55:52.664Z,96853.34
2018-10-11T07:00:47.685Z,96861.45
2018-10-11T07:05:42.594Z,96854.66
2018-10-11T07:10:37.452Z,96870.84
2018-10-11T07:15:33.082Z,96871.39
2018-10-11T07:20:28.013Z,96867.61
2018-10-11T07:25:22.866Z,96875.46
2018-10-11T07:30:17.781Z,96885.49
2018-10-11T07:35:12.755Z,96891.70
2018-10-11T07:40:08.137Z,96891.87
2018-10-11T07:45:02.994Z,96894.66
2018-10-11T07:49:57.868Z,96892.60
2018-10-11T07:54:52.821Z,96901.55
2018-10-11T07:59:47.626Z,96913.66
2018-10-11T08:04:42.453Z,96920.41
2018-10-11T08:09:37.266Z,96915.64
2018-10-11T08:14:32.013Z,96925.02
2018-10-11T08:19:28.001Z,96926.83
2018-10-11T08:24:22.492Z,96925.66
2018-10-11T08:29:17.257Z,96924.74
2018-10-11T08:34:12.942Z,96938.75
2018-10-11T08:39:11.538Z,96942.63
2018-10-11T08:44:06.515Z,96948.33
2018-10-11T08:49:02.143Z,96952.66
2018-10-11T08:54:01.054Z,96963.95
2018-10-11T08:58:55.848Z,96963.34
2018-10-11T09:03:50.840Z,96966.55
2018-10-11T09:08:45.521Z,96978.70
2018-10-11T09:13:40.362Z,96978.59
2018-10-11T09:18:35.319Z,96987.66
2018-10-11T09:23:30.150Z,96981.83
2018-10-11T09:28:26.338Z,96985.97
2018-10-11T09:33:21.257Z,96986.66
2018-10-11T09:38:17.762Z,96984.19
2018-10-11T09:43:12.649Z,96994.64
2018-10-11T09:48:07.443Z,96986.36
2018-10-11T09:53:02.275Z,96984.26
2018-10-11T09:57:57.094Z,96977.33
2018-10-11T10:02:52.462Z,96975.21
2018-10-11T10:07:47.303Z,96970.23
2018-10-11T10:12:42.117Z,96989.02
2018-10-11T10:17:37.414Z,96987.08
2018-10-11T10:22:32.513Z,96984.06
2018-10-11T10:27:27.387Z,96975.23
2018-10-11T10:32:22.195Z,96972.09
2018-10-11T10:37:17.065Z,96968.42
2018-10-11T10:42:11.900Z,96975.07
2018-10-11T10:47:06.786Z,96976.21
2018-10-11T10:52:01.633Z,96984.72
2018-10-11T10:56:57.005Z,96983.70
2018-10-11T11:01:51.805Z,96972.30
2018-10-11T11:06:46.646Z,96965.49
2018-10-11T11:11:41.818Z,96970.33
2018-10-11T11:16:36.622Z,96968.48
2018-10-11T11:21:31.474Z,96961.17
2018-10-11T11:26:26.299Z,96963.50
2018-10-11T11:31:21.315Z,96955.69
2018-10-11T11:36:16.217Z,96951.73
2018-10-11T11:41:11.064Z,96949.73
2018-10-11T11:46:05.909Z,96947.24
2018-10-11T11:51:00.827Z,96946.23
2018-10-11T11:55:55.710Z,96950.20
2018-10-11T12:00:50.586Z,96943.89
2018-10-11T12:05:45.409Z,96945.88
2018-10-11T12:10:40.261Z,96950.52
2018-10-11T12:15:35.677Z,96941.20
2018-10-11T12:20:33.583Z,96936.58
2018-10-11T12:25:28.891Z,96946.52
2018-10-11T12:30:25.015Z,96948.36
2018-10-11T12:35:21.009Z,96947.56
2018-10-11T12:40:17.115Z,96946.55
2018-10-11T12:45:12.949Z,96945.88
2018-10-11T12:50:09.189Z,96944.05
2018-10-11T12:55:04.100Z,96944.40
2018-10-11T12:59:58.952Z,96939.23
2018-10-11T13:04:53.796Z,96940.23
2018-10-11T13:09:48.661Z,96941.23
2018-10-11T13:19:30.318Z,96949.72
2018-10-11T13:24:26.216Z,96957.33
2018-10-11T13:29:21.070Z,96944.08
2018-10-11T13:34:15.936Z,96938.75
2018-10-11T13:39:11.743Z,96941.91
2018-10-11T13:44:06.581Z,96940.60
2018-10-11T13:49:01.631Z,96940.89
2018-10-11T13:53:58.398Z,96939.55
2018-10-11T13:58:51.755Z,96941.86
2018-10-11T14:03:49.100Z,96940.50
2018-10-11T14:08:44.953Z,96942.59
2018-10-11T14:13:40.890Z,96944.20
2018-10-11T14:18:42.509Z,96945.86
2018-10-11T14:23:37.958Z,96949.95
2018-10-11T14:28:33.857Z,96945.13
2018-10-11T14:33:30.947Z,96947.09
2018-10-11T14:38:26.926Z,96940.23
2018-10-11T14:43:21.814Z,96939.41
2018-10-11T14:48:16.633Z,96940.45
2018-10-11T14:53:11.486Z,96941.31
2018-10-11T14:58:06.601Z,96945.76
2018-10-11T15:03:02.189Z,96952.24
2018-10-11T15:07:57.155Z,96963.59
2018-10-11T15:12:51.935Z,96954.98
2018-10-11T15:17:46.834Z,96959.45
2018-10-11T15:22:41.655Z,96960.61
2018-10-11T15:27:36.518Z,96961.63
2018-10-11T15:32:32.521Z,96964.30
2018-10-11T15:37:27.401Z,96957.36
2018-10-11T15:42:22.285Z,96956.04
2018-10-11T15:47:17.202Z,96959.35
2018-10-11T15:52:12.107Z,96968.28
2018-10-11T15:57:07.001Z,96969.59
2018-10-11T16:02:02.725Z,96956.28
2018-10-11T16:06:57.623Z,96958.21
2018-10-11T16:11:52.558Z,96961.67
2018-10-11T16:16:47.377Z,96972.27
2018-10-11T16:21:42.273Z,96975.59
2018-10-11T16:26:37.128Z,96974.40
2018-10-11T16:31:32.055Z,96962.58
2018-10-11T16:36:26.937Z,96972.98
2018-10-11T16:41:21.780Z,96976.56
2018-10-11T16:46:16.983Z,96967.59
2018-10-11T16:51:11.819Z,96962.22
2018-10-11T16:56:06.746Z,96970.09
2018-10-11T17:01:01.611Z,96981.94
2018-10-11T17:05:56.443Z,96995.05
2018-10-11T17:10:51.327Z,96999.77
2018-10-11T17:15:46.313Z,97001.98
2018-10-11T17:20:41.142Z,97009.04
2018-10-11T17:25:36.070Z,97015.06
2018-10-11T17:30:30.915Z,97016.70
2018-10-11T17:35:25.943Z,97020.80
2018-10-11T17:40:20.898Z,97022.78
2018-10-11T17:45:15.695Z,97028.77
2018-10-11T17:50:10.653Z,97027.84
2018-10-11T17:55:05.655Z,97031.86
2018-10-11T18:00:00.515Z,97040.81
2018-10-11T18:04:55.404Z,97038.67
2018-10-11T18:09:50.556Z,97046.79
2018-10-11T18:14:45.430Z,97051.94
2018-10-11T18:19:40.308Z,97053.20
2018-10-11T18:24:35.184Z,97052.78
2018-10-11T18:29:30.068Z,97058.89
2018-10-11T18:34:24.892Z,97068.97
2018-10-11T18:39:20.805Z,97060.14
2018-10-11T18:44:15.854Z,97072.09
2018-10-11T18:49:11.089Z,97075.45
2018-10-11T18:54:05.975Z,97069.83
2018-10-11T18:59:00.815Z,97080.11
2018-10-11T19:03:55.689Z,97074.00
2018-10-11T19:08:50.580Z,97073.57
2018-10-11T19:13:45.466Z,97086.23
2018-10-11T19:18:40.957Z,97088.63
2018-10-11T19:23:36.205Z,97093.01
2018-10-11T19:28:31.072Z,97108.12
2018-10-11T19:33:26.121Z,97112.34
2018-10-11T19:38:21.099Z,97118.59
2018-10-11T19:43:16.068Z,97109.45
2018-10-11T19:48:11.086Z,97117.50
2018-10-11T19:53:06.090Z,97130.27
2018-10-11T19:58:01.757Z,97137.48
2018-10-11T20:02:56.713Z,97137.63
2018-10-11T20:07:51.914Z,97141.97
2018-10-11T20:12:47.641Z,97144.32
2018-10-11T20:17:42.938Z,97157.17
2018-10-11T20:22:38.229Z,97164.25
2018-10-11T20:32:42.864Z,97183.06
2018-10-11T20:37:38.770Z,97188.10
2018-10-11T20:42:34.008Z,97198.91
2018-10-11T20:47:28.965Z,97195.15
2018-10-11T20:52:23.816Z,97207.32
2018-10-11T20:57:18.741Z,97219.09
2018-10-11T21:02:14.313Z,97221.48
2018-10-11T21:07:09.273Z,97224.27
2018-10-11T21:12:04.765Z,97236.25
2018-10-11T21:16:59.794Z,97239.11
2018-10-11T21:21:54.633Z,97248.45
2018-10-11T21:26:49.594Z,97259.83
2018-10-11T21:31:44.442Z,97275.16
2018-10-11T21:36:39.326Z,97276.23
2018-10-11T21:41:34.441Z,97281.84
2018-10-11T21:46:29.358Z,97286.53
2018-10-11T21:51:24.158Z,97291.80
2018-10-11T21:56:18.954Z,97294.19
2018-10-11T22:01:18.951Z,97302.92
2018-10-11T22:06:14.688Z,97304.45
2018-10-11T22:11:10.134Z,97316.19
2018-10-11T22:16:05.082Z,97308.53
2018-10-11T22:21:00.011Z,97312.38
2018-10-11T22:25:55.426Z,97313.57
2018-10-11T22:30:50.302Z,97325.76
2018-10-11T22:35:45.342Z,97344.52
2018-10-11T22:40:40.385Z,97353.60
2018-10-11T22:45:35.250Z,97355.53
2018-10-11T22:50:30.131Z,97350.80
2018-10-11T22:55:25.834Z,97355.58
2018-10-11T23:00:21.978Z,97362.89
2018-10-11T23:05:16.836Z,97362.75
2018-10-11T23:10:11.791Z,97371.70
2018-10-11T23:15:06.800Z,97374.73
2018-10-11T23:20:01.684Z,97381.27
2018-10-11T23:24:56.710Z,97369.41
2018-10-11T23:29:51.558Z,97373.28
2018-10-11T23:34:47.175Z,97379.33
2018-10-11T23:39:42.206Z,97388.73
2018-10-11T23:44:37.229Z,97392.64
2018-10-11T23:49:32.313Z,97402.94
2018-10-11T23:54:27.122Z,97406.88
2018-10-11T23:59:22.498Z,97418.44
